Data for 03/28/2006

Time Sea-Level Adjusted Pressure Absolute Pressure Temperature Relative Humidity Dew Point   
(mb) (inHg) (mb) (inHg) (C) (F) (%) (C) (F)
00:05 1013 29.91 842 24.86 2.2 36 42 -9.4 15
00:10 1013 29.91 842 24.86 2.1 35.9 44 -8.9 15.9
00:15 1013 29.91 842 24.86 2.1 35.7 44 -9 15.8
00:20 1013 29.91 842 24.86 1.9 35.5 43 -9.3 15.2
00:25 1013 29.91 842 24.86 2.4 36.3 43 -9 15.8
00:30 1013 29.91 842 24.86 2.2 36 43 -9 15.8
00:35 1013 29.91 842 24.86 2.4 36.4 40 -10 14
00:40 1013 29.91 842 24.86 2.5 36.5 40 -9.9 14.2
00:45 1013 29.91 842 24.86 2.4 36.4 43 -9 15.7
00:50 1013 29.91 842 24.86 2.3 36.1 42 -9.4 15
00:55 1013 29.91 842 24.86 2.2 36 41 -9.7 14.6
01:00 1013 29.91 842 24.86 2.4 36.3 40 -9.9 14.2
01:05 1013 29.91 842 24.86 2.6 36.7 46 -8 17.6
01:10 1013 29.91 842 24.86 1.6 34.8 45 -9.3 15.3
01:15 1013 29.91 842 24.86 1.4 34.6 42 -10.1 13.8
01:20 1013 29.91 842 24.86 2 35.5 42 -9.6 14.6
01:25 1013 29.91 842 24.86 1.8 35.3 42 -9.7 14.5
01:30 1013 29.91 842 24.86 1.8 35.3 42 -9.7 14.5
01:35 1013 29.91 842 24.86 1.7 35 43 -9.6 14.7
01:40 1013 29.91 842 24.86 1.8 35.3 42 -9.8 14.3
01:45 1012 29.88 842 24.86 2.3 36.1 40 -9.9 14.2
01:50 1012 29.88 841 24.83 1.8 35.3 45 -8.8 16.1
01:55 1012 29.88 841 24.83 1.9 35.4 41 -10 14
02:00 1012 29.88 841 24.83 1.9 35.4 40 -10.4 13.3
02:05 1012 29.88 841 24.83 1.9 35.4 43 -9.3 15.3
02:10 1012 29.88 841 24.83 2.1 35.8 41 -9.9 14.3
02:15 1012 29.88 841 24.83 2.3 36.2 38 -10.6 13
02:20 1012 29.88 841 24.83 3 37.5 37 -10.3 13.5
02:25 1012 29.88 841 24.83 3 37.4 39 -9.7 14.5
02:30 1012 29.88 841 24.83 2.9 37.2 37 -10.3 13.5
02:35 1012 29.88 841 24.83 2.8 37.1 38 -10.2 13.7
02:40 1012 29.88 841 24.83 3 37.4 37 -10.3 13.5
02:45 1012 29.88 841 24.83 3 37.4 37 -10.2 13.6
02:50 1012 29.88 841 24.83 3 37.4 38 -10.1 13.8
02:55 1012 29.88 841 24.83 2.9 37.2 39 -9.9 14.2
03:00 1012 29.88 841 24.83 2.8 37 39 -9.7 14.5
03:05 1012 29.88 841 24.83 2.1 35.9 44 -8.9 16
03:10 1012 29.88 841 24.83 1.8 35.3 46 -8.7 16.3
03:15 1012 29.88 841 24.83 1.7 35 45 -9.2 15.5
03:20 1012 29.88 841 24.83 1.5 34.7 45 -9.3 15.3
03:25 1012 29.88 841 24.83 1.5 34.7 46 -9 15.8
03:30 1012 29.88 841 24.83 0.9 33.5 47 -9.3 15.2
03:35 1012 29.88 841 24.83 1.2 34.1 43 -10.1 13.8
03:40 1012 29.88 841 24.83 1.5 34.8 45 -9 15.7
03:45 1012 29.88 841 24.83 1 33.8 44 -9.9 14.2
03:50 1012 29.88 841 24.83 1.4 34.4 44 -9.5 14.9
03:55 1012 29.88 841 24.83 1.5 34.7 45 -9.2 15.4
04:00 1012 29.88 841 24.83 0.9 33.7 48 -9 15.8
04:05 1012 29.88 841 24.83 0.5 32.8 48 -9.4 15.1
04:10 1012 29.88 841 24.83 0.7 33.2 48 -9.2 15.4
04:15 1012 29.88 841 24.83 0.6 33.1 46 -9.6 14.7
04:20 1012 29.88 841 24.83 1 33.9 44 -9.9 14.1
04:25 1012 29.88 841 24.83 1 33.8 46 -9.4 15.1
04:30 1012 29.88 841 24.83 0.5 32.8 49 -9 15.8
04:35 1012 29.88 841 24.83 1.2 34.1 41 -10.5 13
04:40 1012 29.88 841 24.83 1.9 35.4 43 -9.6 14.8
04:45 1012 29.88 841 24.83 1.6 34.9 43 -9.6 14.8
04:50 1012 29.88 841 24.83 1.1 34 46 -9.4 15
04:55 1012 29.88 841 24.83 1.2 34.2 45 -9.4 15.1
05:00 1011 29.85 841 24.83 0.9 33.6 47 -9.1 15.5
05:05 1011 29.85 841 24.83 1 33.9 45 -9.5 14.9
05:10 1011 29.85 841 24.83 1.3 34.3 46 -9.2 15.5
05:15 1011 29.85 841 24.83 1.3 34.4 46 -9 15.8
05:20 1011 29.85 841 24.83 1.4 34.4 47 -8.8 16.2
05:25 1011 29.85 841 24.83 1.1 34 48 -8.6 16.5
05:30 1011 29.85 841 24.83 1.2 34.1 46 -9.2 15.4
05:35 1012 29.88 841 24.83 1.6 34.9 45 -9.1 15.6
05:40 1012 29.88 841 24.83 1.6 34.8 45 -9 15.8
05:45 1011 29.85 841 24.83 1.5 34.7 48 -8.5 16.7
05:50 1011 29.85 841 24.83 1.5 34.7 45 -9.2 15.5
05:55 1011 29.85 841 24.83 2.1 35.7 43 -9.3 15.2
06:00 1011 29.85 841 24.83 2.1 35.8 46 -8.3 17.1
06:05 1011 29.85 841 24.83 1.5 34.7 48 -8.5 16.8
06:10 1011 29.85 841 24.83 1.4 34.6 48 -8.5 16.7
06:15 1011 29.85 841 24.83 1.9 35.4 44 -9 15.7
06:20 1011 29.85 841 24.83 2.2 36 45 -8.5 16.7
06:25 1011 29.85 841 24.83 2.1 35.8 46 -8.4 16.9
06:30 1012 29.88 841 24.83 2.1 35.8 46 -8.4 16.9
06:35 1012 29.88 841 24.83 2.4 36.3 45 -8.3 17.1
06:40 1012 29.88 841 24.83 2.6 36.7 44 -8.6 16.5
06:45 1012 29.88 841 24.83 2.8 37.1 44 -8.3 17
06:50 1012 29.88 841 24.83 2.7 36.8 44 -8.4 16.9
06:55 1012 29.88 841 24.83 3 37.4 43 -8.3 17
07:00 1012 29.88 841 24.83 3.4 38.1 44 -7.9 17.9
07:05 1011 29.85 841 24.83 3.3 37.9 43 -8.1 17.5
07:10 1011 29.85 841 24.83 3.7 38.6 43 -7.8 17.9
07:15 1011 29.85 841 24.83 3.7 38.6 43 -7.9 17.9
07:20 1011 29.85 841 24.83 4 39.3 42 -7.7 18.1
07:25 1011 29.85 841 24.83 4.3 39.7 41 -7.7 18.1
07:30 1011 29.85 841 24.83 4.4 39.9 42 -7.5 18.5
07:35 1011 29.85 841 24.83 4.6 40.2 41 -7.6 18.3
07:40 1011 29.85 841 24.83 4.9 40.8 40 -7.5 18.5
07:45 1011 29.85 840 24.81 4.7 40.5 44 -6.6 20.1
07:50 1011 29.85 840 24.81 4.2 39.6 46 -6.4 20.5
07:55 1011 29.85 840 24.81 4.2 39.6 47 -6.1 21
08:00 1011 29.85 840 24.81 4.5 40.1 45 -6.4 20.6
08:05 1011 29.85 840 24.81 5.1 41.1 43 -6.5 20.2
08:10 1011 29.85 840 24.81 5.2 41.3 44 -6 21.1
08:15 1011 29.85 840 24.81 5.5 42 43 -6.1 21
08:20 1011 29.85 840 24.81 5.9 42.6 40 -6.7 19.9
08:25 1011 29.85 840 24.81 6.5 43.7 41 -5.9 21.4
08:30 1011 29.85 840 24.81 6.8 44.2 39 -6 21.1
08:35 1011 29.85 840 24.81 7.3 45.1 42 -4.8 23.3
08:40 1011 29.85 840 24.81 7.4 45.3 40 -5.2 22.6
08:45 1011 29.85 840 24.81 7.9 46.2 38 -5.4 22.2
08:50 1011 29.85 840 24.81 8.8 47.8 36 -5.6 22
08:55 1011 29.85 840 24.81 9.2 48.6 36 -5.2 22.7
09:00 1011 29.85 840 24.81 9.9 49.8 34 -5.1 22.9
09:05 1011 29.85 840 24.81 10 49.9 35 -4.8 23.3
09:10 1011 29.85 840 24.81 8.7 47.7 38 -4.9 23.2
09:15 1011 29.85 840 24.81 7.8 46 38 -5.5 22.1
09:20 1011 29.85 840 24.81 8.6 47.5 37 -5.2 22.6
09:25 1011 29.85 840 24.81 8.4 47 39 -4.6 23.6
09:30 1011 29.85 840 24.81 7.7 45.9 42 -4.4 24.2
09:35 1011 29.85 840 24.81 7 44.5 45 -4.2 24.5
09:40 1011 29.85 840 24.81 6.3 43.4 43 -5.2 22.6
09:45 1011 29.85 840 24.81 6.4 43.5 44 -5 23.1
09:50 1011 29.85 840 24.81 6.1 42.9 46 -4.7 23.5
09:55 1011 29.85 840 24.81 7 44.6 42 -5.1 22.7
10:00 1011 29.85 840 24.81 6.8 44.2 44 -4.7 23.6
10:05 1011 29.85 840 24.81 6.5 43.8 42 -5.5 22.1
10:10 1011 29.85 840 24.81 6.6 43.8 43 -5 23
10:15 1011 29.85 840 24.81 6.9 44.3 45 -4.3 24.3
10:20 1011 29.85 840 24.81 6.6 43.9 44 -4.9 23.1
10:25 1011 29.85 840 24.81 6.6 43.8 45 -4.6 23.6
10:30 1011 29.85 840 24.81 6.7 44.1 43 -5 23
10:35 1011 29.85 841 24.83 7.2 44.9 42 -4.9 23.2
10:40 1011 29.85 841 24.83 7.3 45.2 41 -5.1 22.8
10:45 1011 29.85 841 24.83 7.4 45.4 38 -6 21.1
10:50 1011 29.85 840 24.81 7.3 45.1 39 -5.9 21.3
10:55 1011 29.85 840 24.81 7.5 45.5 37 -6.1 21
11:00 1011 29.85 840 24.81 7.6 45.7 38 -5.6 21.9
11:05 1011 29.85 840 24.81 7.9 46.3 36 -6.3 20.7
11:10 1011 29.85 840 24.81 7.8 46.1 36 -6.4 20.5
11:15 1011 29.85 840 24.81 8.2 46.8 36 -6 21.2
11:20 1011 29.85 840 24.81 8.3 47 38 -5.2 22.6
11:25 1011 29.85 840 24.81 8.3 47 36 -5.9 21.4
11:30 1011 29.85 840 24.81 8.5 47.4 35 -6 21.3
11:35 1011 29.85 840 24.81 8.4 47.1 37 -5.4 22.3
11:40 1011 29.85 840 24.81 8.2 46.8 38 -5.4 22.3
11:45 1011 29.85 840 24.81 8.4 47.1 36 -5.8 21.6
11:50 1011 29.85 840 24.81 8.5 47.4 37 -5.3 22.5
11:55 1011 29.85 840 24.81 8.5 47.3 38 -5.1 22.8
12:00 1011 29.85 840 24.81 8.6 47.5 37 -5.2 22.7
12:05 1011 29.85 840 24.81 8.5 47.4 37 -5.5 22.1
12:10 1011 29.85 840 24.81 8.3 47 38 -5.1 22.9
12:15 1011 29.85 840 24.81 8.2 46.7 42 -3.9 25
12:20 1011 29.85 840 24.81 8.3 47 40 -4.4 24
12:25 1011 29.85 840 24.81 8.7 47.6 42 -3.5 25.7
12:30 1011 29.85 840 24.81 8.7 47.6 43 -3.3 26.1
12:35 1011 29.85 840 24.81 8.8 47.8 41 -3.8 25.2
12:40 1011 29.85 840 24.81 9.1 48.3 36 -5.1 22.8
12:45 1011 29.85 840 24.81 9 48.2 36 -5.2 22.6
12:50 1011 29.85 840 24.81 8.9 47.9 37 -5 23.1
12:55 1011 29.85 840 24.81 9.5 49.1 38 -4 24.9
13:00 1011 29.85 840 24.81 9.2 48.6 39 -3.8 25.1
13:05 1011 29.85 840 24.81 9 48.3 41 -3.4 25.9
13:10 1010 29.83 840 24.81 9 48.2 42 -3.2 26.2
13:15 1010 29.83 840 24.81 9.1 48.4 40 -3.7 25.4
13:20 1010 29.83 839 24.78 9.2 48.5 39 -3.9 25
13:25 1010 29.83 839 24.78 9.3 48.7 39 -4.1 24.6
13:30 1010 29.83 839 24.78 9.5 49 39 -3.9 25
13:35 1010 29.83 839 24.78 9.8 49.6 38 -3.8 25.2
13:40 1010 29.83 839 24.78 9.8 49.6 37 -4.2 24.5
13:45 1010 29.83 839 24.78 9.9 49.8 37 -4.2 24.4
13:50 1010 29.83 839 24.78 10.2 50.3 39 -3 26.6
13:55 1010 29.83 839 24.78 10.4 50.6 37 -3.7 25.4
14:00 1010 29.83 839 24.78 10.7 51.3 35 -4.1 24.6
14:05 1010 29.83 839 24.78 10.7 51.2 37 -3.5 25.7
14:10 1010 29.83 839 24.78 11.1 51.9 35 -3.8 25.2
14:15 1009 29.8 839 24.78 11.5 52.7 34 -3.7 25.4
14:20 1009 29.8 839 24.78 11.6 52.9 34 -3.6 25.4
14:25 1009 29.8 839 24.78 11.9 53.4 34 -3.6 25.6
14:30 1009 29.8 839 24.78 12.4 54.2 32 -3.8 25.1
14:35 1009 29.8 838 24.75 12.6 54.6 31 -4 24.8
14:40 1009 29.8 838 24.75 12.8 55 31 -3.9 24.9
14:45 1009 29.8 838 24.75 12.8 55 31 -4.1 24.7
14:50 1009 29.8 838 24.75 13 55.3 29 -4.7 23.6
14:55 1009 29.8 838 24.75 13 55.5 29 -4.4 24
15:00 1009 29.8 838 24.75 13.4 56 27 -5.2 22.6
15:05 1009 29.8 838 24.75 13.6 56.4 28 -4.3 24.2
15:10 1009 29.8 838 24.75 13.6 56.6 28 -4.6 23.7
15:15 1009 29.8 838 24.75 13 55.4 29 -4.6 23.8
15:20 1009 29.8 838 24.75 12.8 55 29 -4.8 23.3
15:25 1009 29.8 838 24.75 13 55.4 29 -4.6 23.7
15:30 1009 29.8 838 24.75 13 55.3 30 -4.2 24.4
15:35 1009 29.8 838 24.75 13 55.5 28 -5.1 22.9
15:40 1009 29.8 838 24.75 13.1 55.5 28 -5 23
15:45 1009 29.8 838 24.75 13.6 56.5 27 -5.2 22.6
15:50 1008 29.77 838 24.75 13.8 56.8 27 -4.7 23.6
15:55 1008 29.77 838 24.75 13.4 56.1 28 -4.9 23.2
16:00 1008 29.77 838 24.75 13.4 56.2 27 -5.1 22.9
16:05 1008 29.77 837 24.72 13.4 56.2 28 -4.8 23.3
16:10 1008 29.77 837 24.72 13.5 56.3 29 -4.3 24.3
16:15 1008 29.77 837 24.72 13.6 56.4 28 -4.7 23.6
16:20 1008 29.77 837 24.72 13.5 56.4 29 -4.1 24.6
16:25 1008 29.77 837 24.72 13.5 56.2 28 -4.7 23.6
16:30 1008 29.77 837 24.72 13.4 56.1 30 -3.6 25.5
16:35 1008 29.77 837 24.72 13.4 56.1 30 -3.6 25.5
16:40 1008 29.77 837 24.72 13.5 56.4 28 -4.7 23.6
16:45 1008 29.77 837 24.72 13.4 56.2 28 -4.6 23.7
16:50 1008 29.77 837 24.72 13.4 56.1 28 -4.8 23.4
16:55 1008 29.77 837 24.72 13.1 55.5 28 -4.8 23.4
17:00 1008 29.77 837 24.72 12.7 54.8 30 -4.6 23.8
17:05 1008 29.77 837 24.72 13 55.3 29 -4.6 23.7
17:10 1008 29.77 837 24.72 13 55.4 30 -4.2 24.4
17:15 1008 29.77 837 24.72 12.8 55 30 -4.2 24.4
17:20 1008 29.77 837 24.72 12.5 54.5 32 -3.7 25.3
17:25 1008 29.77 837 24.72 12.4 54.3 33 -3.3 26
17:30 1008 29.77 837 24.72 12.4 54.4 34 -2.8 27
17:35 1008 29.77 837 24.72 12.2 53.9 36 -2.2 28
17:40 1008 29.77 837 24.72 11.8 53.3 36 -2.7 27.2
17:45 1008 29.77 837 24.72 11.8 53.2 37 -2.5 27.5
17:50 1008 29.77 837 24.72 11.7 53 37 -2.4 27.6
17:55 1008 29.77 837 24.72 11.5 52.6 37 -2.7 27.2
18:00 1008 29.77 837 24.72 11.4 52.5 37 -2.8 27
18:05 1008 29.77 837 24.72 11.1 52 39 -2.2 28
18:10 1008 29.77 837 24.72 11 51.7 39 -2.5 27.5
18:15 1008 29.77 837 24.72 11 51.8 38 -2.6 27.3
18:20 1008 29.77 837 24.72 11.1 51.9 39 -2.4 27.7
18:25 1008 29.77 837 24.72 11.3 52.3 38 -2.6 27.4
18:30 1008 29.77 837 24.72 11.4 52.6 37 -2.7 27.1
18:35 1008 29.77 837 24.72 11.4 52.5 39 -2.1 28.3
18:40 1008 29.77 837 24.72 11 51.8 40 -1.9 28.5
18:45 1008 29.77 837 24.72 10.7 51.3 43 -1.5 29.4
18:50 1007 29.74 837 24.72 10.4 50.7 43 -1.7 28.9
18:55 1007 29.74 837 24.72 10.2 50.4 43 -1.7 28.9
19:00 1007 29.74 837 24.72 10.3 50.6 44 -1.5 29.3
19:05 1008 29.77 837 24.72 10.3 50.6 44 -1.4 29.5
19:10 1008 29.77 837 24.72 10.3 50.5 44 -1.4 29.6
19:15 1008 29.77 837 24.72 10.3 50.6 46 -0.6 30.8
19:20 1008 29.77 837 24.72 9.6 49.3 48 -0.9 30.4
19:25 1008 29.77 837 24.72 9.2 48.6 49 -1 30.2
19:30 1008 29.77 837 24.72 9.5 49.2 47 -1.2 29.9
19:35 1008 29.77 837 24.72 9.8 49.7 47 -0.8 30.6
19:40 1008 29.77 837 24.72 9.8 49.7 48 -0.6 30.9
19:45 1008 29.77 837 24.72 9.7 49.5 49 -0.5 31.2
19:50 1008 29.77 837 24.72 9.5 49.1 50 -0.3 31.4
19:55 1008 29.77 837 24.72 9.4 49 51 -0.2 31.6
20:00 1008 29.77 837 24.72 9.3 48.7 52 0 32.1
20:05 1008 29.77 837 24.72 9.1 48.4 52 -0.2 31.7
20:10 1008 29.77 837 24.72 9.1 48.3 52 -0.3 31.4
20:15 1008 29.77 837 24.72 9 48.2 52 -0.2 31.7
20:20 1008 29.77 837 24.72 8.9 48 53 -0.2 31.7
20:25 1008 29.77 837 24.72 8.8 47.8 53 -0.1 31.8
20:30 1008 29.77 837 24.72 8.7 47.7 54 0 32
20:35 1008 29.77 837 24.72 8.7 47.6 54 -0.2 31.7
20:40 1008 29.77 837 24.72 8.6 47.6 54 -0.1 31.7
20:45 1008 29.77 837 24.72 8.7 47.6 54 -0.1 31.7
20:50 1008 29.77 837 24.72 8.8 47.8 53 -0.2 31.7
20:55 1008 29.77 837 24.72 8.8 47.8 53 -0.2 31.7
21:00 1008 29.77 837 24.72 8.9 48 53 -0.2 31.7
21:05 1008 29.77 837 24.72 8.9 48 53 -0.2 31.7
21:10 1008 29.77 837 24.72 8.9 48 53 -0 31.9
21:15 1008 29.77 837 24.72 8.8 47.9 54 0 32.1
21:20 1008 29.77 837 24.72 8.7 47.6 55 0.1 32.2
21:25 1008 29.77 837 24.72 8.5 47.3 55 0 32
21:30 1008 29.77 837 24.72 8.5 47.4 55 -0 32
21:35 1008 29.77 837 24.72 8.6 47.5 55 0 32
21:40 1008 29.77 837 24.72 8.6 47.5 55 0.1 32.1
21:45 1008 29.77 837 24.72 8.6 47.4 55 0.2 32.3
21:50 1007 29.74 837 24.72 8.5 47.3 56 0.3 32.6
21:55 1007 29.74 837 24.72 8.4 47.1 57 0.3 32.6
22:00 1007 29.74 837 24.72 8.1 46.7 57 0.2 32.4
22:05 1007 29.74 837 24.72 7.9 46.2 58 0.2 32.4
22:10 1007 29.74 836 24.69 7.8 46.1 59 0.3 32.5
22:15 1007 29.74 836 24.69 7.4 45.4 61 0.3 32.6
22:20 1007 29.74 836 24.69 6.6 43.9 65 0.5 32.8
22:25 1007 29.74 836 24.69 6.1 43 66 0.2 32.3
22:30 1007 29.74 836 24.69 6.3 43.3 65 0.1 32.2
22:35 1007 29.74 836 24.69 5.9 42.7 67 0.2 32.3
22:40 1007 29.74 836 24.69 5.4 41.7 67 -0.2 31.6
22:45 1007 29.74 836 24.69 5.2 41.4 67 -0.3 31.5
22:50 1007 29.74 836 24.69 5.2 41.4 68 -0.2 31.6
22:55 1007 29.74 836 24.69 5.5 41.9 67 -0.2 31.6
23:00 1007 29.74 836 24.69 5.1 41.2 69 -0.2 31.7
23:05 1007 29.74 836 24.69 5.4 41.8 68 -0.1 31.9
23:10 1007 29.74 836 24.69 5.5 41.9 68 0.1 32.1
23:15 1007 29.74 836 24.69 5.3 41.6 69 0 32.1
23:20 1007 29.74 836 24.69 5.3 41.5 68 -0 32
23:25 1007 29.74 836 24.69 4.8 40.7 70 -0.1 31.8
23:30 1007 29.74 836 24.69 4.8 40.7 70 -0.1 31.8
23:35 1007 29.74 836 24.69 5.2 41.4 69 0 32
23:40 1007 29.74 836 24.69 5.1 41.2 71 0.3 32.5
23:45 1007 29.74 836 24.69 4.7 40.5 72 0.1 32.2
23:50 1007 29.74 836 24.69 4.4 39.8 73 -0.1 31.9
23:55 1007 29.74 836 24.69 4.1 39.4 74 -0.2 31.7
24:00 1007 29.74 836 24.69 4.2 39.5 73 -0.2 31.6